Time;durP1;ratioP1;P1;durP2;ratioP2;P2;SDS_P1;SDS_P2;PMS_P1;PMS_P2;Temp;Humidity;BMP_temperature;BMP_pressure;BME280_temperature;BME280_humidity;BME280_pressure;Samples;Min_cycle;Max_cycle;Signal;HPM_P1;HPM_P2
2023/04/06 00:01:49;;;;;;;11.60;10.50;;;5.10;99.90;;;;;;5098163;28;20538;-44
2023/04/06 00:04:16;;;;;;;10.90;9.80;;;5.10;99.90;;;;;;5097423;28;20487;-44
2023/04/06 00:06:42;;;;;;;12.20;11.10;;;5.10;99.90;;;;;;5096481;28;20415;-46
2023/04/06 00:09:08;;;;;;;12.90;11.27;;;5.00;99.90;;;;;;5097672;28;20773;-44
2023/04/06 00:11:33;;;;;;;13.10;11.80;;;5.00;99.90;;;;;;5098844;28;20263;-44
2023/04/06 00:14:00;;;;;;;12.37;11.13;;;4.90;99.90;;;;;;5098166;28;20572;-43
2023/04/06 00:16:25;;;;;;;11.00;9.90;;;4.90;99.90;;;;;;5098312;28;20199;-46
2023/04/06 00:18:51;;;;;;;12.17;10.90;;;4.80;99.90;;;;;;5097052;28;20524;-48
2023/04/06 00:21:17;;;;;;;12.30;11.00;;;4.80;99.90;;;;;;5097903;28;20168;-43
2023/04/06 00:23:43;;;;;;;13.33;11.80;;;4.80;99.90;;;;;;5097681;28;20758;-45
2023/04/06 00:26:10;;;;;;;12.53;10.63;;;4.80;99.90;;;;;;5097003;28;20232;-49
2023/04/06 00:28:36;;;;;;;12.33;11.23;;;4.80;99.90;;;;;;5095369;28;20192;-43
2023/04/06 00:31:04;;;;;;;11.30;10.00;;;4.70;99.90;;;;;;5096549;28;20411;-47
2023/04/06 00:33:30;;;;;;;11.83;10.60;;;4.70;99.90;;;;;;5097106;28;20647;-45
2023/04/06 00:35:55;;;;;;;12.33;11.00;;;4.60;99.90;;;;;;5096108;28;20525;-46
2023/04/06 00:38:22;;;;;;;13.50;11.00;;;4.60;99.90;;;;;;5096140;28;20279;-46
2023/04/06 00:40:47;;;;;;;12.70;10.53;;;4.60;99.90;;;;;;5095797;28;20168;-46
2023/04/06 00:43:13;;;;;;;12.23;10.93;;;4.60;99.90;;;;;;5097483;28;20642;-45
2023/04/06 00:45:40;;;;;;;13.10;11.90;;;4.50;99.90;;;;;;5097450;28;20541;-43
2023/04/06 00:48:07;;;;;;;12.97;11.67;;;4.50;99.90;;;;;;5097586;28;20421;-44
2023/04/06 00:50:33;;;;;;;12.30;10.40;;;4.50;99.90;;;;;;5097344;28;20438;-45
2023/04/06 00:52:59;;;;;;;12.60;11.40;;;4.40;99.90;;;;;;5097680;28;20407;-44
2023/04/06 00:55:26;;;;;;;11.23;9.77;;;4.40;99.90;;;;;;5097431;28;20200;-45
2023/04/06 00:57:52;;;;;;;13.00;11.53;;;4.50;99.90;;;;;;5096709;28;20471;-43
2023/04/06 01:00:18;;;;;;;13.03;11.47;;;4.30;99.90;;;;;;5096984;28;20438;-44
2023/04/06 01:02:45;;;;;;;13.50;11.17;;;4.30;99.90;;;;;;5096978;28;20528;-44
2023/04/06 01:05:11;;;;;;;14.23;12.20;;;4.30;99.90;;;;;;5095930;28;20550;-46
2023/04/06 01:07:36;;;;;;;12.67;11.30;;;4.20;99.90;;;;;;5095857;28;20443;-44
2023/04/06 01:10:03;;;;;;;15.00;11.30;;;4.20;99.90;;;;;;5096382;28;20445;-47
2023/04/06 01:12:29;;;;;;;12.27;10.80;;;4.20;99.90;;;;;;5079577;28;20180;-44
2023/04/06 01:14:55;;;;;;;12.63;11.33;;;4.20;99.90;;;;;;5097284;28;20488;-43
2023/04/06 01:17:21;;;;;;;12.93;11.53;;;4.10;99.90;;;;;;5097446;28;20410;-45
2023/04/06 01:19:49;;;;;;;11.97;10.67;;;4.10;99.90;;;;;;5097091;28;20832;-46
2023/04/06 01:22:18;;;;;;;12.90;11.60;;;4.10;99.90;;;;;;5095911;28;20414;-45
2023/04/06 01:24:45;;;;;;;13.10;11.70;;;4.10;99.90;;;;;;5095805;28;20442;-45
2023/04/06 01:27:10;;;;;;;13.23;11.87;;;4.00;99.90;;;;;;5096959;28;20800;-44
2023/04/06 01:29:36;;;;;;;13.00;11.60;;;4.00;99.90;;;;;;5096570;28;20577;-46
2023/04/06 01:32:02;;;;;;;14.47;11.43;;;4.00;99.90;;;;;;5095162;28;20824;-44
2023/04/06 01:34:28;;;;;;;14.07;12.40;;;4.00;99.90;;;;;;5096322;28;20505;-47
2023/04/06 01:36:55;;;;;;;12.67;11.30;;;3.90;99.90;;;;;;5096418;28;20204;-45
2023/04/06 01:39:21;;;;;;;11.77;10.57;;;3.90;99.90;;;;;;5095511;28;20418;-43
2023/04/06 01:41:49;;;;;;;14.23;12.80;;;3.90;99.90;;;;;;5097208;28;20208;-44
2023/04/06 01:44:17;;;;;;;12.30;11.00;;;3.90;99.90;;;;;;5096437;28;20180;-44
2023/04/06 01:46:43;;;;;;;13.60;12.20;;;3.90;99.90;;;;;;5096733;28;20410;-43
2023/04/06 01:49:09;;;;;;;13.50;12.20;;;3.80;99.90;;;;;;5098019;28;20492;-47
2023/04/06 01:51:35;;;;;;;13.53;11.90;;;3.80;99.90;;;;;;5103691;28;20263;-48
2023/04/06 01:54:01;;;;;;;15.00;12.83;;;3.80;99.90;;;;;;5103566;28;20216;-46
2023/04/06 01:56:45;;;;;;;11.40;10.20;;;3.80;99.90;;;;;;5103473;28;20262;-46
2023/04/06 01:59:11;;;;;;;14.83;12.03;;;3.70;99.90;;;;;;5102080;28;20437;-43
2023/04/06 02:01:36;;;;;;;14.13;11.80;;;3.70;99.90;;;;;;5102856;28;20415;-45
2023/04/06 02:04:02;;;;;;;14.27;11.83;;;3.70;99.90;;;;;;5084792;28;20184;-44
2023/04/06 02:06:28;;;;;;;15.17;12.00;;;3.70;99.90;;;;;;5100824;28;20204;-44
2023/04/06 02:08:54;;;;;;;12.27;11.03;;;3.70;99.90;;;;;;5103261;28;20180;-44
2023/04/06 02:11:19;;;;;;;16.60;11.03;;;3.70;99.90;;;;;;5102317;28;20454;-43
2023/04/06 02:13:45;;;;;;;12.07;10.53;;;3.60;99.90;;;;;;5102511;28;20208;-45
2023/04/06 02:16:11;;;;;;;15.40;11.93;;;3.60;99.90;;;;;;5102852;28;20936;-44
2023/04/06 02:18:37;;;;;;;12.17;10.90;;;3.50;99.90;;;;;;5102980;28;20415;-45
2023/04/06 02:21:02;;;;;;;12.87;11.57;;;3.50;99.90;;;;;;5103164;28;20207;-44
2023/04/06 02:23:28;;;;;;;12.20;11.03;;;3.50;99.90;;;;;;5101566;28;20435;-46
2023/04/06 02:25:54;;;;;;;12.87;11.43;;;3.50;99.90;;;;;;5101146;28;20176;-47
2023/04/06 02:28:20;;;;;;;14.20;12.00;;;3.40;99.90;;;;;;5100149;28;20278;-43
2023/04/06 02:30:46;;;;;;;13.73;12.17;;;3.40;99.90;;;;;;5101558;28;20216;-45
2023/04/06 02:33:12;;;;;;;12.00;10.83;;;3.40;99.90;;;;;;5101238;28;20564;-46
2023/04/06 02:35:37;;;;;;;14.53;13.10;;;3.40;99.90;;;;;;5101155;28;20480;-48
2023/04/06 02:38:03;;;;;;;13.77;11.87;;;3.30;99.90;;;;;;5101059;28;20216;-46
2023/04/06 02:40:29;;;;;;;12.87;11.40;;;3.30;99.90;;;;;;5099043;28;20513;-47
2023/04/06 02:42:54;;;;;;;13.40;11.83;;;3.20;99.90;;;;;;5101288;28;20175;-46
2023/04/06 02:45:20;;;;;;;14.03;12.10;;;3.20;99.90;;;;;;5101558;28;20581;-45
2023/04/06 02:47:46;;;;;;;14.23;12.30;;;3.20;99.90;;;;;;5101477;28;20184;-44
2023/04/06 02:50:12;;;;;;;13.47;12.17;;;3.10;99.90;;;;;;5101858;28;20229;-43
2023/04/06 02:52:37;;;;;;;13.73;12.40;;;3.10;99.90;;;;;;5101144;28;20192;-47
2023/04/06 02:55:03;;;;;;;13.77;12.13;;;3.20;99.90;;;;;;5101244;28;20272;-44
2023/04/06 02:57:29;;;;;;;13.10;11.60;;;3.10;99.90;;;;;;5101586;28;20184;-43
2023/04/06 02:59:55;;;;;;;14.70;13.10;;;3.10;99.90;;;;;;5099473;28;20438;-45
2023/04/06 03:02:21;;;;;;;14.47;10.90;;;3.10;99.90;;;;;;5096609;28;20293;-43
2023/04/06 03:04:47;;;;;;;13.23;11.83;;;3.00;99.90;;;;;;5097984;28;20229;-45
2023/04/06 03:07:13;;;;;;;14.10;12.17;;;3.00;99.90;;;;;;5097263;28;20180;-43
2023/04/06 03:09:38;;;;;;;15.43;13.50;;;3.00;99.90;;;;;;5097367;28;20492;-43
2023/04/06 03:12:04;;;;;;;13.90;12.43;;;3.00;99.90;;;;;;5098065;28;20184;-46
2023/04/06 03:14:30;;;;;;;12.10;10.90;;;2.90;99.90;;;;;;5099170;28;20215;-47
2023/04/06 03:16:56;;;;;;;13.77;11.33;;;2.90;99.90;;;;;;5099400;28;20419;-44
2023/04/06 03:19:21;;;;;;;15.27;12.80;;;2.90;99.90;;;;;;5097965;28;20168;-46
2023/04/06 03:21:47;;;;;;;14.13;11.13;;;2.90;99.90;;;;;;5099163;28;20181;-45
2023/04/06 03:24:13;;;;;;;12.87;11.57;;;2.90;99.90;;;;;;5098003;28;20192;-43
2023/04/06 03:26:39;;;;;;;13.93;11.00;;;2.90;99.90;;;;;;5098887;28;20265;-46
2023/04/06 03:29:05;;;;;;;14.17;11.77;;;2.90;99.90;;;;;;5080888;28;20498;-46
2023/04/06 03:31:31;;;;;;;12.40;11.10;;;2.90;99.90;;;;;;5097140;28;20442;-44
2023/04/06 03:33:57;;;;;;;12.27;10.97;;;2.80;99.90;;;;;;5097097;28;20466;-45
2023/04/06 03:36:23;;;;;;;14.13;11.93;;;2.80;99.90;;;;;;5098739;28;20264;-44
2023/04/06 03:38:48;;;;;;;14.90;11.50;;;2.70;1.00;;;;;;5098288;28;20184;-45
2023/04/06 03:41:14;;;;;;;14.80;11.60;;;2.70;1.00;;;;;;5098331;28;20184;-46
2023/04/06 03:43:40;;;;;;;16.20;11.50;;;2.70;1.00;;;;;;5097994;28;20176;-45
2023/04/06 03:46:06;;;;;;;13.00;11.67;;;2.70;1.00;;;;;;5097673;28;20311;-44
2023/04/06 03:48:31;;;;;;;13.37;12.00;;;2.60;1.00;;;;;;5095737;28;20176;-47
2023/04/06 03:50:57;;;;;;;13.40;11.30;;;2.60;1.00;;;;;;5095895;28;20180;-43
2023/04/06 03:53:23;;;;;;;13.50;12.07;;;2.60;1.00;;;;;;5095371;28;20275;-43
2023/04/06 03:55:48;;;;;;;13.00;11.70;;;2.60;1.00;;;;;;5095014;28;20191;-45
2023/04/06 03:58:14;;;;;;;13.60;12.20;;;2.50;1.00;;;;;;5095441;28;20541;-42
2023/04/06 04:00:40;;;;;;;15.60;12.60;;;2.50;1.00;;;;;;5095270;28;20169;-46
2023/04/06 04:03:05;;;;;;;13.77;11.60;;;2.50;1.00;;;;;;5096613;28;20241;-45
2023/04/06 04:05:31;;;;;;;14.50;12.03;;;2.50;1.00;;;;;;5097188;28;20204;-44
2023/04/06 04:07:57;;;;;;;15.27;12.37;;;2.50;1.00;;;;;;5095528;28;20195;-46
2023/04/06 04:10:22;;;;;;;13.70;11.87;;;2.50;1.00;;;;;;5095192;28;20188;-47
2023/04/06 04:12:48;;;;;;;14.73;12.70;;;2.40;1.00;;;;;;5094971;28;20173;-44
2023/04/06 04:15:14;;;;;;;13.73;12.20;;;2.50;1.00;;;;;;5095658;28;20287;-43
2023/04/06 04:17:39;;;;;;;15.50;11.80;;;2.40;1.00;;;;;;5094368;28;20177;-45
2023/04/06 04:20:06;;;;;;;15.30;12.27;;;2.40;1.00;;;;;;5096267;28;20176;-47
2023/04/06 04:22:32;;;;;;;13.70;12.00;;;2.40;1.00;;;;;;5094648;28;20269;-44
2023/04/06 04:24:58;;;;;;;13.67;12.13;;;2.40;1.00;;;;;;5095862;28;20426;-45
2023/04/06 04:27:23;;;;;;;15.40;11.90;;;2.40;1.00;;;;;;5096730;28;20445;-45
2023/04/06 04:29:49;;;;;;;13.53;12.13;;;2.30;1.00;;;;;;5097133;28;20219;-45
2023/04/06 04:32:16;;;;;;;15.00;13.50;;;2.30;1.00;;;;;;5094485;28;20184;-43
2023/04/06 04:34:42;;;;;;;14.03;12.30;;;2.30;1.00;;;;;;5092509;28;20481;-46
2023/04/06 04:37:07;;;;;;;14.10;11.83;;;2.30;1.00;;;;;;5092422;28;20423;-42
2023/04/06 04:39:33;;;;;;;14.87;12.53;;;2.30;1.00;;;;;;5091050;28;20179;-47
2023/04/06 04:41:59;;;;;;;13.80;12.23;;;2.30;1.00;;;;;;5092837;28;20399;-44
2023/04/06 04:44:24;;;;;;;12.20;11.10;;;2.20;1.00;;;;;;5091422;28;20288;-43
2023/04/06 04:46:50;;;;;;;17.33;12.40;;;2.20;1.00;;;;;;5094073;28;20184;-46
2023/04/06 04:49:16;;;;;;;16.10;11.97;;;2.20;1.00;;;;;;5094208;28;20173;-46
2023/04/06 04:51:42;;;;;;;14.17;11.97;;;2.20;1.00;;;;;;5094233;28;20213;-44
2023/04/06 04:54:07;;;;;;;12.77;11.20;;;2.20;1.00;;;;;;5093754;28;20219;-44
2023/04/06 04:56:33;;;;;;;13.07;11.67;;;2.20;1.00;;;;;;5093435;28;20512;-44
2023/04/06 04:58:59;;;;;;;13.07;11.17;;;2.20;1.00;;;;;;5092141;28;20249;-43
2023/04/06 05:01:24;;;;;;;14.97;12.80;;;2.20;1.00;;;;;;5092468;28;20542;-44
2023/04/06 05:03:50;;;;;;;13.03;11.63;;;2.20;1.00;;;;;;5092018;28;20571;-45
2023/04/06 05:06:16;;;;;;;12.97;10.87;;;2.30;1.00;;;;;;5092009;28;20176;-44
2023/04/06 05:08:42;;;;;;;12.30;11.00;;;2.30;1.00;;;;;;5091958;28;20176;-44
2023/04/06 05:11:09;;;;;;;13.87;12.43;;;2.30;1.00;;;;;;5092332;28;20200;-43
2023/04/06 05:13:35;;;;;;;15.77;12.30;;;2.30;1.00;;;;;;5092188;28;20527;-47
2023/04/06 05:16:01;;;;;;;14.60;13.00;;;2.30;1.00;;;;;;5093176;28;20482;-45
2023/04/06 05:18:27;;;;;;;13.93;11.60;;;2.40;1.00;;;;;;5091494;28;20526;-46
2023/04/06 05:20:52;;;;;;;16.43;13.30;;;2.40;1.00;;;;;;5092908;28;20489;-45
2023/04/06 05:23:18;;;;;;;13.63;12.20;;;2.40;1.00;;;;;;5094578;28;20177;-47
2023/04/06 05:25:44;;;;;;;15.03;12.20;;;2.50;1.00;;;;;;5095121;28;20260;-47
2023/04/06 05:28:10;;;;;;;13.07;11.77;;;2.50;1.00;;;;;;5093876;28;20181;-45
2023/04/06 05:30:35;;;;;;;15.60;13.13;;;2.60;1.00;;;;;;5095780;28;20239;-45
2023/04/06 05:33:02;;;;;;;14.40;11.80;;;2.70;1.00;;;;;;5094939;28;20172;-45
2023/04/06 05:35:27;;;;;;;14.00;11.73;;;2.80;1.00;;;;;;5093498;28;20227;-46
2023/04/06 05:37:53;;;;;;;13.97;12.37;;;2.80;1.00;;;;;;5093281;28;20407;-46
2023/04/06 05:40:19;;;;;;;17.77;13.10;;;2.90;1.00;;;;;;5092997;28;20206;-44
2023/04/06 05:42:44;;;;;;;18.33;13.13;;;3.00;1.00;;;;;;5091274;28;20168;-43
2023/04/06 05:45:16;;;;;;;13.53;11.83;;;3.00;1.00;;;;;;5091537;28;20718;-44
2023/04/06 05:47:42;;;;;;;14.03;11.40;;;3.10;1.00;;;;;;5093153;28;20180;-44
2023/04/06 05:50:08;;;;;;;13.80;12.37;;;3.20;1.00;;;;;;5092973;28;20433;-44
2023/04/06 05:52:34;;;;;;;16.60;12.60;;;3.30;1.00;;;;;;5093322;28;20411;-46
2023/04/06 05:55:00;;;;;;;14.60;12.17;;;3.40;1.00;;;;;;5092985;28;20239;-47
2023/04/06 05:57:26;;;;;;;14.40;12.37;;;3.50;1.00;;;;;;5092098;28;20209;-45
2023/04/06 05:59:52;;;;;;;14.90;11.50;;;3.60;1.00;;;;;;5092304;28;20836;-44
2023/04/06 06:02:17;;;;;;;14.40;12.20;;;3.80;1.00;;;;;;5092998;28;20558;-48
2023/04/06 06:04:43;;;;;;;14.03;12.77;;;4.00;1.00;;;;;;5093498;28;20181;-45
2023/04/06 06:07:09;;;;;;;15.30;13.00;;;4.20;1.00;;;;;;5092110;28;20176;-43
2023/04/06 06:09:34;;;;;;;15.70;13.10;;;4.40;1.00;;;;;;5091347;28;20323;-43
2023/04/06 06:12:00;;;;;;;14.00;12.50;;;4.60;1.00;;;;;;5091959;28;20207;-45
2023/04/06 06:14:30;;;;;;;14.40;12.90;;;4.80;1.00;;;;;;5093135;28;20287;-47
2023/04/06 06:16:55;;;;;;;13.50;12.27;;;5.10;1.00;;;;;;5092530;28;20234;-46
2023/04/06 06:19:21;;;;;;;14.47;12.97;;;5.40;1.00;;;;;;5090729;28;20573;-46
2023/04/06 06:21:47;;;;;;;17.20;13.93;;;5.70;1.00;;;;;;5092401;28;20442;-44
2023/04/06 06:24:12;;;;;;;16.40;14.70;;;6.10;1.00;;;;;;5075454;28;20215;-46
2023/04/06 06:26:39;;;;;;;19.00;15.13;;;6.40;1.00;;;;;;5093165;28;20181;-43
2023/04/06 06:29:05;;;;;;;20.97;16.93;;;6.70;1.00;;;;;;5093001;28;20255;-46
2023/04/06 06:31:31;;;;;;;24.03;17.93;;;7.00;99.90;;;;;;5093038;28;20425;-45
2023/04/06 06:33:57;;;;;;;21.70;19.00;;;7.30;99.90;;;;;;5092155;28;20462;-47
2023/04/06 06:36:23;;;;;;;26.63;21.87;;;7.60;99.90;;;;;;5093278;28;20437;-44
2023/04/06 06:38:48;;;;;;;31.80;23.80;;;7.80;99.90;;;;;;5095204;28;20190;-47
2023/04/06 06:41:15;;;;;;;27.60;21.27;;;8.10;99.90;;;;;;5096577;28;20515;-47
2023/04/06 06:43:42;;;;;;;25.70;20.43;;;8.30;99.90;;;;;;5097118;28;20219;-47
2023/04/06 06:46:08;;;;;;;21.07;17.37;;;8.50;99.90;;;;;;5096833;28;20784;-44
2023/04/06 06:48:33;;;;;;;17.63;15.83;;;8.70;99.90;;;;;;5096186;28;20453;-43
2023/04/06 06:50:59;;;;;;;17.23;15.40;;;8.90;99.90;;;;;;5095785;28;20180;-44
2023/04/06 06:53:25;;;;;;;15.37;13.73;;;9.10;99.90;;;;;;5096863;28;20181;-45
2023/04/06 06:55:50;;;;;;;15.00;13.50;;;9.40;99.90;;;;;;5095624;28;20177;-44
2023/04/06 06:58:21;;;;;;;15.30;13.70;;;9.60;99.90;;;;;;5094811;28;20539;-45
2023/04/06 07:00:47;;;;;;;13.57;12.20;;;9.80;99.90;;;;;;5094169;28;20180;-45
2023/04/06 07:03:13;;;;;;;14.37;12.87;;;10.00;99.90;;;;;;5094609;28;20407;-45
2023/04/06 07:05:39;;;;;;;12.00;10.70;;;10.30;99.90;;;;;;5095320;28;20271;-44
2023/04/06 07:08:05;;;;;;;12.20;11.00;;;10.50;99.90;;;;;;5093536;28;20187;-45
2023/04/06 07:10:31;;;;;;;12.53;11.33;;;10.70;99.90;;;;;;5095092;28;20704;-46
2023/04/06 07:12:57;;;;;;;11.73;10.63;;;11.00;99.90;;;;;;5092961;28;20173;-44
2023/04/06 07:15:22;;;;;;;11.77;10.50;;;11.20;99.90;;;;;;5091187;28;20219;-44
2023/04/06 07:17:48;;;;;;;12.63;11.43;;;11.50;99.90;;;;;;5093309;28;20165;-44
2023/04/06 07:20:14;;;;;;;11.47;10.47;;;11.80;99.90;;;;;;5093244;28;20430;-46
2023/04/06 07:22:41;;;;;;;11.07;9.90;;;12.00;99.90;;;;;;5092722;28;20439;-45
2023/04/06 07:25:07;;;;;;;11.00;9.90;;;12.30;99.90;;;;;;5092810;28;20433;-44
2023/04/06 07:27:33;;;;;;;11.70;10.70;;;12.50;99.90;;;;;;5094041;28;20410;-46
2023/04/06 07:29:59;;;;;;;10.43;9.43;;;12.80;99.90;;;;;;5095797;28;20560;-44
2023/04/06 07:32:25;;;;;;;10.97;9.87;;;13.00;99.90;;;;;;5093047;28;20510;-47
2023/04/06 07:34:51;;;;;;;10.87;9.87;;;13.30;99.90;;;;;;5094120;28;20204;-43
2023/04/06 07:37:17;;;;;;;11.33;10.23;;;13.50;99.90;;;;;;5095292;28;20419;-45
2023/04/06 07:39:42;;;;;;;13.87;11.30;;;13.80;99.90;;;;;;5094995;28;20259;-45
2023/04/06 07:42:08;;;;;;;11.10;10.10;;;14.10;99.90;;;;;;5096322;28;20458;-47
2023/04/06 07:44:34;;;;;;;12.03;10.83;;;14.40;99.90;;;;;;5095809;28;20503;-45
2023/04/06 07:47:00;;;;;;;11.27;10.27;;;14.90;99.90;;;;;;5093649;28;20177;-46
2023/04/06 07:49:26;;;;;;;12.23;11.13;;;15.50;99.90;;;;;;5096651;28;20541;-46
2023/04/06 07:51:51;;;;;;;11.60;10.33;;;16.20;99.90;;;;;;5095513;28;20418;-44
2023/04/06 07:54:17;;;;;;;11.53;10.43;;;16.90;99.90;;;;;;5095751;28;20261;-44
2023/04/06 07:56:43;;;;;;;12.43;11.00;;;17.60;99.90;;;;;;5095310;28;20173;-45
2023/04/06 07:59:08;;;;;;;11.57;10.57;;;18.20;99.90;;;;;;5091669;28;20180;-45
2023/04/06 08:01:34;;;;;;;12.20;11.10;;;18.80;99.90;;;;;;5094008;28;20458;-45
2023/04/06 08:04:02;;;;;;;11.63;10.63;;;19.50;99.90;;;;;;5094978;28;20169;-46
2023/04/06 08:06:28;;;;;;;12.40;11.30;;;20.10;99.90;;;;;;5095344;28;20259;-44
2023/04/06 08:08:54;;;;;;;11.63;10.53;;;20.70;99.90;;;;;;5077478;28;20680;-46
2023/04/06 08:11:20;;;;;;;10.80;9.80;;;21.30;99.90;;;;;;5096928;28;20921;-43
2023/04/06 08:13:46;;;;;;;11.30;10.13;;;21.60;99.90;;;;;;5096526;28;20560;-45
2023/04/06 08:16:12;;;;;;;11.20;10.20;;;22.10;99.90;;;;;;5094716;28;20605;-46
2023/04/06 08:18:38;;;;;;;11.33;10.33;;;22.70;99.90;;;;;;5096688;28;20427;-47
2023/04/06 08:21:04;;;;;;;12.73;11.70;;;23.30;99.90;;;;;;5097543;28;20455;-44
2023/04/06 08:23:30;;;;;;;12.10;11.00;;;23.60;99.90;;;;;;5097497;28;20426;-46
2023/04/06 08:25:56;;;;;;;10.43;9.60;;;23.80;99.90;;;;;;5096590;28;20243;-46
2023/04/06 08:28:22;;;;;;;11.37;10.40;;;24.20;99.90;;;;;;5095972;28;20422;-48
2023/04/06 08:30:48;;;;;;;12.27;11.27;;;24.50;99.90;;;;;;5095336;28;20172;-47
2023/04/06 08:33:14;;;;;;;10.87;9.87;;;24.80;99.90;;;;;;5095640;28;20855;-46
2023/04/06 08:35:40;;;;;;;11.70;10.77;;;25.00;99.90;;;;;;5075907;28;20225;-46
2023/04/06 08:38:07;;;;;;;12.37;11.27;;;25.50;99.90;;;;;;5093848;28;20422;-46
2023/04/06 08:40:39;;;;;;;12.33;11.23;;;26.20;99.90;;;;;;5093219;28;20180;-46
2023/04/06 08:43:08;;;;;;;11.50;10.40;;;26.70;99.90;;;;;;5092580;28;20881;-44
2023/04/06 08:45:34;;;;;;;11.67;10.63;;;27.10;99.90;;;;;;5091571;28;20419;-44
2023/04/06 08:48:01;;;;;;;10.97;10.07;;;27.60;99.90;;;;;;5091644;28;20433;-43
2023/04/06 08:50:29;;;;;;;11.00;10.00;;;27.70;99.90;;;;;;5091783;28;20449;-45
2023/04/06 08:52:55;;;;;;;11.53;10.53;;;27.80;99.90;;;;;;5091141;28;20414;-47
2023/04/06 08:55:22;;;;;;;9.53;8.73;;;28.40;99.90;;;;;;5093871;28;20709;-45
2023/04/06 08:57:49;;;;;;;10.47;9.67;;;29.00;99.90;;;;;;5093061;28;20414;-44
2023/04/06 09:00:15;;;;;;;11.70;10.80;;;29.40;99.90;;;;;;5093179;28;20586;-45
2023/04/06 09:02:43;;;;;;;10.63;9.73;;;29.90;99.90;;;;;;5094008;28;20414;-46
2023/04/06 09:05:12;;;;;;;9.10;8.37;;;29.90;99.90;;;;;;5092536;28;20430;-46
2023/04/06 09:07:38;;;;;;;8.80;8.00;;;30.20;99.90;;;;;;5094957;28;20484;-41
2023/04/06 09:10:05;;;;;;;7.70;7.00;;;30.40;99.90;;;;;;5093589;28;20461;-44
2023/04/06 09:12:34;;;;;;;5.60;5.10;;;30.60;99.90;;;;;;5093797;28;20440;-45
2023/04/06 09:15:01;;;;;;;5.93;5.20;;;30.70;99.90;;;;;;5095922;28;20449;-45
2023/04/06 09:17:33;;;;;;;5.97;5.47;;;31.00;99.90;;;;;;5094462;28;20458;-43
2023/04/06 09:20:00;;;;;;;6.00;5.40;;;30.90;99.90;;;;;;5094070;28;20422;-45
2023/04/06 09:22:26;;;;;;;6.73;6.13;;;30.90;99.90;;;;;;5093158;28;20438;-45
2023/04/06 09:24:53;;;;;;;7.60;6.70;;;30.70;99.90;;;;;;5095235;28;20434;-45
2023/04/06 09:27:32;;;;;;;6.77;6.23;;;30.70;99.90;;;;;;5095864;28;20423;-45
2023/04/06 09:30:09;;;;;;;6.70;6.10;;;30.50;99.90;;;;;;5094291;28;20452;-45
2023/04/06 09:32:52;;;;;;;5.60;5.13;;;30.20;99.90;;;;;;5092804;28;20774;-43
2023/04/06 09:35:22;;;;;;;5.00;4.60;;;30.20;99.90;;;;;;5092617;28;20452;-43
2023/04/06 09:37:51;;;;;;;6.90;6.30;;;30.40;99.90;;;;;;5091798;28;20414;-44
2023/04/06 09:40:18;;;;;;;6.20;5.70;;;30.10;99.90;;;;;;5094520;28;20682;-44
2023/04/06 09:42:49;;;;;;;6.77;6.17;;;30.10;99.90;;;;;;5092650;28;20450;-44
2023/04/06 09:45:15;;;;;;;5.47;4.97;;;30.20;99.90;;;;;;5089948;28;20405;-43
2023/04/06 09:47:45;;;;;;;5.00;4.60;;;30.00;99.90;;;;;;5091761;28;20446;-44
2023/04/06 09:50:12;;;;;;;5.37;4.93;;;30.30;99.90;;;;;;5092541;28;20732;-46
2023/04/06 09:52:51;;;;;;;5.40;4.97;;;30.60;99.90;;;;;;5091515;28;20923;-46
2023/04/06 09:55:43;;;;;;;5.47;5.07;;;31.00;99.90;;;;;;5091077;28;20613;-45
2023/04/06 09:58:19;;;;;;;6.57;6.07;;;31.10;99.90;;;;;;5092591;28;20429;-44
2023/04/06 10:01:03;;;;;;;6.07;5.53;;;31.50;99.90;;;;;;5091915;28;20421;-46
2023/04/06 10:03:44;;;;;;;6.93;5.90;;;31.50;99.90;;;;;;5093557;28;20434;-44
2023/04/06 10:06:14;;;;;;;5.83;5.43;;;31.90;99.90;;;;;;5095144;28;20422;-43
2023/04/06 10:08:41;;;;;;;7.00;6.47;;;32.50;99.90;;;;;;5095154;28;20425;-43
2023/04/06 10:11:08;;;;;;;7.47;6.97;;;32.90;99.90;;;;;;5076645;28;20676;-44
2023/04/06 10:13:34;;;;;;;5.30;4.90;;;33.50;99.90;;;;;;5095699;28;20504;-44
2023/04/06 10:16:04;;;;;;;5.97;5.47;;;34.50;99.90;;;;;;5097557;28;20575;-42
2023/04/06 10:18:30;;;;;;;6.40;5.90;;;35.50;99.90;;;;;;5094795;28;20822;-45
2023/04/06 10:21:07;;;;;;;4.83;4.53;;;35.50;99.90;;;;;;5096277;28;20407;-47
2023/04/06 10:23:36;;;;;;;5.20;4.80;;;36.70;99.90;;;;;;5094329;28;20418;-43
2023/04/06 10:26:02;;;;;;;5.73;5.33;;;37.20;99.90;;;;;;5096010;28;20433;-44
2023/04/06 10:28:35;;;;;;;6.10;5.50;;;37.40;99.90;;;;;;5097076;28;20705;-46
2023/04/06 10:31:05;;;;;;;6.03;5.23;;;37.30;99.90;;;;;;5095989;28;20874;-43
2023/04/06 10:33:31;;;;;;;5.27;4.83;;;37.40;99.90;;;;;;5097887;28;20426;-46
2023/04/06 10:35:57;;;;;;;5.50;5.10;;;38.00;99.90;;;;;;5095838;28;20494;-43
2023/04/06 10:38:37;;;;;;;4.97;4.67;;;37.80;99.90;;;;;;5096604;28;20842;-44
2023/04/06 10:41:36;;;;;;;4.90;4.50;;;38.50;99.90;;;;;;5097791;28;20421;-43
2023/04/06 10:44:02;;;;;;;4.27;3.97;;;38.80;99.90;;;;;;5095724;28;20430;-43
2023/04/06 10:46:32;;;;;;;5.17;4.77;;;39.50;99.90;;;;;;5094899;28;20426;-43
2023/04/06 10:49:00;;;;;;;3.93;3.60;;;39.30;99.90;;;;;;5095134;28;20779;-42
2023/04/06 10:51:27;;;;;;;4.23;3.93;;;39.40;99.90;;;;;;5092858;28;20406;-44
2023/04/06 10:53:54;;;;;;;5.37;4.97;;;39.30;99.90;;;;;;5092645;28;20473;-43
2023/04/06 10:56:23;;;;;;;5.13;4.73;;;39.10;99.90;;;;;;5094813;28;20777;-46
2023/04/06 10:58:57;;;;;;;5.03;4.63;;;39.00;99.90;;;;;;5093496;28;20793;-47
2023/04/06 11:01:26;;;;;;;5.10;4.70;;;38.80;99.90;;;;;;5094608;28;20423;-43
2023/04/06 11:03:58;;;;;;;4.30;4.00;;;39.10;99.90;;;;;;5096776;28;20740;-44
2023/04/06 11:06:30;;;;;;;5.90;5.50;;;39.80;99.90;;;;;;5097263;28;20411;-45
2023/04/06 11:08:56;;;;;;;4.70;4.40;;;39.80;99.90;;;;;;5094213;28;20433;-43
2023/04/06 11:11:25;;;;;;;6.07;4.80;;;40.00;99.90;;;;;;5095450;28;20506;-44
2023/04/06 11:13:56;;;;;;;6.90;6.27;;;40.40;99.90;;;;;;5095941;28;20849;-45
2023/04/06 11:16:33;;;;;;;4.00;3.60;;;40.50;99.90;;;;;;5095396;28;20425;-46
2023/04/06 11:19:01;;;;;;;4.50;4.10;;;41.00;99.90;;;;;;5095232;28;20495;-46
2023/04/06 11:21:48;;;;;;;4.90;4.60;;;41.40;1.00;;;;;;5078609;28;20435;-44
2023/04/06 11:24:21;;;;;;;4.87;4.57;;;41.40;1.00;;;;;;5095163;28;20462;-44
2023/04/06 11:26:53;;;;;;;4.30;4.00;;;41.80;1.00;;;;;;5094480;28;20526;-43
2023/04/06 11:29:21;;;;;;;4.07;3.80;;;41.50;99.90;;;;;;5091459;28;20887;-46
2023/04/06 11:31:48;;;;;;;5.00;4.70;;;41.70;1.00;;;;;;5092494;28;20665;-47
2023/04/06 11:34:20;;;;;;;3.73;3.53;;;41.70;1.00;;;;;;5094441;28;20711;-45
2023/04/06 11:36:48;;;;;;;4.20;3.90;;;42.20;1.00;;;;;;5092876;28;20525;-47
2023/04/06 11:39:21;;;;;;;5.03;4.47;;;42.10;1.00;;;;;;5093001;28;20979;-43
2023/04/06 11:42:02;;;;;;;4.53;4.23;;;41.70;99.90;;;;;;5093136;28;20499;-47
2023/04/06 11:44:38;;;;;;;4.50;4.10;;;41.60;99.90;;;;;;5096147;28;20538;-43
2023/04/06 11:47:06;;;;;;;4.20;3.90;;;41.90;99.90;;;;;;5094528;28;20437;-46
2023/04/06 11:49:33;;;;;;;4.00;3.70;;;41.90;99.90;;;;;;5094371;28;20423;-44
2023/04/06 11:52:00;;;;;;;4.60;4.30;;;42.00;1.00;;;;;;5093622;28;20816;-47
2023/04/06 11:54:38;;;;;;;6.10;5.60;;;42.20;99.90;;;;;;5092137;28;20434;-46
2023/04/06 11:57:05;;;;;;;4.13;3.83;;;42.10;1.00;;;;;;5092882;28;20569;-48
2023/04/06 11:59:31;;;;;;;4.73;4.23;;;42.00;99.90;;;;;;5094019;28;20442;-45
2023/04/06 12:01:57;;;;;;;4.33;4.03;;;42.20;99.90;;;;;;5092456;28;20431;-43
2023/04/06 12:04:24;;;;;;;4.27;3.97;;;42.40;99.90;;;;;;5091581;28;20466;-45
2023/04/06 12:06:49;;;;;;;7.00;6.50;;;42.50;1.00;;;;;;5093323;28;20527;-46
2023/04/06 12:09:17;;;;;;;6.10;5.70;;;42.30;99.90;;;;;;5094680;28;20453;-43
2023/04/06 12:11:43;;;;;;;4.77;4.47;;;42.10;99.90;;;;;;5094983;28;20202;-43
2023/04/06 12:14:09;;;;;;;4.63;4.33;;;42.40;99.90;;;;;;5093482;28;20504;-43
2023/04/06 12:16:35;;;;;;;5.30;4.80;;;42.60;99.90;;;;;;5094738;28;20425;-46
2023/04/06 12:19:01;;;;;;;6.50;6.00;;;42.30;99.90;;;;;;5094129;28;20532;-46
2023/04/06 12:21:28;;;;;;;5.13;4.77;;;42.00;99.90;;;;;;5096115;28;20491;-45
2023/04/06 12:23:54;;;;;;;5.20;4.70;;;41.50;99.90;;;;;;5094031;28;20434;-45
2023/04/06 12:26:21;;;;;;;4.17;3.87;;;41.20;99.90;;;;;;5093052;28;20423;-46
2023/04/06 12:28:47;;;;;;;4.60;4.30;;;41.20;99.90;;;;;;5091962;28;20811;-44
2023/04/06 12:31:17;;;;;;;5.60;5.20;;;41.20;99.90;;;;;;5092152;28;20548;-43
2023/04/06 12:33:44;;;;;;;4.63;4.23;;;41.10;99.90;;;;;;5091941;28;20478;-43
2023/04/06 12:36:15;;;;;;;5.13;4.73;;;41.10;99.90;;;;;;5092534;28;20710;-44
2023/04/06 12:38:45;;;;;;;4.43;4.13;;;41.30;99.90;;;;;;5094078;28;20901;-45
2023/04/06 12:41:11;;;;;;;4.90;4.50;;;41.30;99.90;;;;;;5094938;28;20502;-46